PWSweather.com
Personal Weather Stations
Station Observations
KMAMEDFI2
Medfield, MA 02052

Medfield, MA 02052

Lat: 42.1900822, Lon: -71.3296889

Elevation: 138

Station Type: Rainwise WS MK-III

http://www.medfieldweather.com

High Low Average
Temperature 82.7°F28.2°C 67.7°F19.8°C 76.0°F24.4°C
Dew Point 74.9°F23.8°C 67.4°F19.7°C 72.2°F22.3°C
Winds 4.9 mph 7.9 kmh 0.1 mph 0.2 kmh 2.0 mph S3.2 kmh S
Wind Gusts 10.4 mph16.7 kmh 1.3 mph2.1 kmh 5.0 mph8.0 kmh
Humidity 99% 77% 88%
Pressure 29.96 in1014.6 mb 29.86 in1011.2 mb -
Precipitation 0.00 in0.0 mm - -
Hour Temp Dew Point Humidity Winds Wind Gusts Pressure Precip Precip Rate Daily Precip Total
12:00 AM 67.9°F19.9°C 67.6°F19.8°C 99% 1.1 mph E1.8 kmh E 2.6 mph4.2 kmh 29.97 in1014.9 mb - 0.00 in0.0 mm 0.00 in0.0 mm
01:40 AM 67.7°F19.8°C 67.4°F19.7°C 99% 0.4 mph NE0.6 kmh NE 1.3 mph2.1 kmh 29.96 in1014.6 mb - 0.00 in0.0 mm 0.00 in0.0 mm
07:40 AM 68.4°F20.2°C 68.2°F20.1°C 99% 0.6 mph S1.0 kmh S 2.6 mph4.2 kmh 29.94 in1013.9 mb - 0.00 in0.0 mm 0.00 in0.0 mm
07:50 AM 68.6°F20.3°C 68.3°F20.2°C 99% 2.1 mph SE3.4 kmh SE 2.6 mph4.2 kmh 29.94 in1013.9 mb - 0.00 in0.0 mm 0.00 in0.0 mm
08:00 AM 68.9°F20.5°C 68.6°F20.3°C 99% 0.5 mph SSW0.8 kmh SSW 2.6 mph4.2 kmh 29.95 in1014.2 mb - 0.00 in0.0 mm 0.00 in0.0 mm
08:10 AM 69.2°F20.7°C 68.9°F20.5°C 99% 0.5 mph S0.8 kmh S 1.3 mph2.1 kmh 29.95 in1014.2 mb - 0.00 in0.0 mm 0.00 in0.0 mm
08:20 AM 69.7°F20.9°C 69.4°F20.8°C 99% 0.1 mph WSW0.2 kmh WSW 2.6 mph4.2 kmh 29.95 in1014.2 mb - 0.00 in0.0 mm 0.00 in0.0 mm
08:30 AM 69.8°F21.0°C 69.6°F20.9°C 99% 0.6 mph ESE1.0 kmh ESE 2.6 mph4.2 kmh 29.95 in1014.2 mb - 0.00 in0.0 mm 0.00 in0.0 mm
08:40 AM 70.0°F21.1°C 69.7°F20.9°C 99% 2.3 mph SE3.7 kmh SE 2.6 mph4.2 kmh 29.95 in1014.2 mb - 0.00 in0.0 mm 0.00 in0.0 mm
08:50 AM 70.3°F21.3°C 70.0°F21.1°C 99% 1.9 mph SE3.1 kmh SE 2.6 mph4.2 kmh 29.95 in1014.2 mb - 0.00 in0.0 mm 0.00 in0.0 mm
09:00 AM 70.9°F21.6°C 70.6°F21.4°C 99% 1.4 mph E2.3 kmh E 2.6 mph4.2 kmh 29.95 in1014.2 mb - 0.00 in0.0 mm 0.00 in0.0 mm
09:10 AM 71.4°F21.9°C 71.1°F21.7°C 99% 2.0 mph SSE3.2 kmh SSE 2.6 mph4.2 kmh 29.96 in1014.6 mb - 0.00 in0.0 mm 0.00 in0.0 mm
09:20 AM 72.0°F22.2°C 71.7°F22.1°C 99% 2.3 mph SSE3.7 kmh SSE 2.6 mph4.2 kmh 29.96 in1014.6 mb - 0.00 in0.0 mm 0.00 in0.0 mm
09:30 AM 72.1°F22.3°C 71.8°F22.1°C 99% 0.6 mph SW1.0 kmh SW 3.9 mph6.3 kmh 29.96 in1014.6 mb - 0.00 in0.0 mm 0.00 in0.0 mm
09:40 AM 72.9°F22.7°C 72.3°F22.4°C 98% 1.1 mph SW1.8 kmh SW 2.6 mph4.2 kmh 29.96 in1014.6 mb - 0.00 in0.0 mm 0.00 in0.0 mm
09:50 AM 73.9°F23.3°C 72.3°F22.4°C 95% 2.9 mph SE4.7 kmh SE 2.6 mph4.2 kmh 29.96 in1014.6 mb - 0.00 in0.0 mm 0.00 in0.0 mm
10:00 AM 74.8°F23.8°C 72.7°F22.6°C 93% 2.4 mph S3.9 kmh S 2.6 mph4.2 kmh 29.96 in1014.6 mb - 0.00 in0.0 mm 0.00 in0.0 mm
10:10 AM 75.4°F24.1°C 72.3°F22.4°C 90% 2.9 mph S4.7 kmh S 5.2 mph8.4 kmh 29.96 in1014.6 mb - 0.00 in0.0 mm 0.00 in0.0 mm
10:20 AM 76.5°F24.7°C 73.0°F22.8°C 89% 0.8 mph S1.3 kmh S 3.9 mph6.3 kmh 29.96 in1014.6 mb - 0.00 in0.0 mm 0.00 in0.0 mm
10:30 AM 77.5°F25.3°C 72.6°F22.6°C 85% 3.0 mph S4.8 kmh S 5.2 mph8.4 kmh 29.95 in1014.2 mb - 0.00 in0.0 mm 0.00 in0.0 mm
10:40 AM 77.2°F25.1°C 73.1°F22.8°C 87% 2.4 mph SE3.9 kmh SE 5.2 mph8.4 kmh 29.96 in1014.6 mb - 0.00 in0.0 mm 0.00 in0.0 mm
10:50 AM 77.4°F25.2°C 72.9°F22.7°C 86% 2.1 mph SE3.4 kmh SE 3.9 mph6.3 kmh 29.96 in1014.6 mb - 0.00 in0.0 mm 0.00 in0.0 mm
11:00 AM 78.0°F25.6°C 74.1°F23.4°C 88% 1.8 mph SSW2.9 kmh SSW 5.2 mph8.4 kmh 29.96 in1014.6 mb - 0.00 in0.0 mm 0.00 in0.0 mm
11:10 AM 79.6°F26.4°C 74.0°F23.3°C 83% 1.6 mph S2.6 kmh S 3.9 mph6.3 kmh 29.96 in1014.6 mb - 0.00 in0.0 mm 0.00 in0.0 mm
11:20 AM 79.6°F26.4°C 73.3°F22.9°C 81% 3.2 mph S5.1 kmh S 7.8 mph12.6 kmh 29.96 in1014.6 mb - 0.00 in0.0 mm 0.00 in0.0 mm
11:30 AM 79.3°F26.3°C 73.3°F22.9°C 82% 2.4 mph SE3.9 kmh SE 3.9 mph6.3 kmh 29.96 in1014.6 mb - 0.00 in0.0 mm 0.00 in0.0 mm
11:40 AM 78.6°F25.9°C 73.7°F23.2°C 85% 2.5 mph WSW4.0 kmh WSW 2.6 mph4.2 kmh 29.96 in1014.6 mb - 0.00 in0.0 mm 0.00 in0.0 mm
11:50 AM 78.5°F25.8°C 73.3°F22.9°C 84% 3.3 mph SE5.3 kmh SE 6.5 mph10.5 kmh 29.95 in1014.2 mb - 0.00 in0.0 mm 0.00 in0.0 mm
12:00 PM 79.5°F26.4°C 73.6°F23.1°C 82% 3.1 mph SSW5.0 kmh SSW 7.8 mph12.6 kmh 29.96 in1014.6 mb - 0.00 in0.0 mm 0.00 in0.0 mm
12:10 PM 79.2°F26.2°C 74.3°F23.5°C 85% 3.0 mph SSE4.8 kmh SSE 2.6 mph4.2 kmh 29.95 in1014.2 mb - 0.00 in0.0 mm 0.00 in0.0 mm
12:20 PM 80.3°F26.8°C 74.3°F23.5°C 82% 3.4 mph WSW5.5 kmh WSW 7.8 mph12.6 kmh 29.95 in1014.2 mb - 0.00 in0.0 mm 0.00 in0.0 mm
12:30 PM 81.7°F27.6°C 74.9°F23.8°C 80% 2.0 mph SE3.2 kmh SE 5.2 mph8.4 kmh 29.95 in1014.2 mb - 0.00 in0.0 mm 0.00 in0.0 mm
12:40 PM 81.3°F27.4°C 74.9°F23.8°C 81% 1.9 mph NNW3.1 kmh NNW 2.6 mph4.2 kmh 29.94 in1013.9 mb - 0.00 in0.0 mm 0.00 in0.0 mm
12:50 PM 81.7°F27.6°C 74.2°F23.4°C 78% 3.0 mph SE4.8 kmh SE 6.5 mph10.5 kmh 29.94 in1013.9 mb - 0.00 in0.0 mm 0.00 in0.0 mm
01:00 PM 81.9°F27.7°C 74.4°F23.6°C 78% 2.6 mph ESE4.2 kmh ESE 7.8 mph12.6 kmh 29.94 in1013.9 mb - 0.00 in0.0 mm 0.00 in0.0 mm
01:10 PM 82.1°F27.8°C 74.2°F23.4°C 77% 2.6 mph SSE4.2 kmh SSE 7.8 mph12.6 kmh 29.94 in1013.9 mb - 0.00 in0.0 mm 0.00 in0.0 mm
01:20 PM 82.5°F28.1°C 74.6°F23.7°C 77% 3.1 mph SSE5.0 kmh SSE 5.2 mph8.4 kmh 29.93 in1013.5 mb - 0.00 in0.0 mm 0.00 in0.0 mm
01:30 PM 82.7°F28.2°C 74.7°F23.7°C 77% 2.7 mph S4.3 kmh S 3.9 mph6.3 kmh 29.93 in1013.5 mb - 0.00 in0.0 mm 0.00 in0.0 mm
01:40 PM 81.8°F27.7°C 74.3°F23.5°C 78% 2.8 mph SE4.5 kmh SE 3.9 mph6.3 kmh 29.93 in1013.5 mb - 0.00 in0.0 mm 0.00 in0.0 mm
01:50 PM 81.5°F27.5°C 74.8°F23.8°C 80% 2.4 mph SE3.9 kmh SE 3.9 mph6.3 kmh 29.93 in1013.5 mb - 0.00 in0.0 mm 0.00 in0.0 mm
02:00 PM 81.4°F27.4°C 74.2°F23.4°C 79% 4.7 mph SE7.6 kmh SE 7.8 mph12.6 kmh 29.93 in1013.5 mb - 0.00 in0.0 mm 0.00 in0.0 mm
02:10 PM 81.6°F27.6°C 74.5°F23.6°C 79% 2.3 mph S3.7 kmh S 7.8 mph12.6 kmh 29.92 in1013.2 mb - 0.00 in0.0 mm 0.00 in0.0 mm
02:20 PM 81.6°F27.6°C 74.4°F23.6°C 79% 2.3 mph SW3.7 kmh SW 6.5 mph10.5 kmh 29.92 in1013.2 mb - 0.00 in0.0 mm 0.00 in0.0 mm
02:30 PM 81.0°F27.2°C 74.6°F23.7°C 81% 2.4 mph SW3.9 kmh SW 2.6 mph4.2 kmh 29.92 in1013.2 mb - 0.00 in0.0 mm 0.00 in0.0 mm
02:40 PM 80.9°F27.2°C 74.5°F23.6°C 81% 2.5 mph ESE4.0 kmh ESE 2.6 mph4.2 kmh 29.91 in1012.9 mb - 0.00 in0.0 mm 0.00 in0.0 mm
02:50 PM 81.0°F27.2°C 74.6°F23.7°C 81% 2.3 mph SSW3.7 kmh SSW 3.9 mph6.3 kmh 29.91 in1012.9 mb - 0.00 in0.0 mm 0.00 in0.0 mm
03:00 PM 81.0°F27.2°C 74.6°F23.7°C 81% 1.9 mph WSW3.1 kmh WSW 7.8 mph12.6 kmh 29.91 in1012.9 mb - 0.00 in0.0 mm 0.00 in0.0 mm
03:10 PM 80.6°F27.0°C 73.8°F23.2°C 80% 2.5 mph SW4.0 kmh SW 7.8 mph12.6 kmh 29.91 in1012.9 mb - 0.00 in0.0 mm 0.00 in0.0 mm
03:20 PM 80.7°F27.1°C 73.2°F22.9°C 78% 3.8 mph SSE6.1 kmh SSE 6.5 mph10.5 kmh 29.92 in1013.2 mb - 0.00 in0.0 mm 0.00 in0.0 mm
03:30 PM 80.1°F26.7°C 73.8°F23.2°C 81% 3.7 mph ESE6.0 kmh ESE 9.1 mph14.6 kmh 29.92 in1013.2 mb - 0.00 in0.0 mm 0.00 in0.0 mm
03:40 PM 79.4°F26.3°C 73.4°F23.0°C 82% 2.3 mph WSW3.7 kmh WSW 7.8 mph12.6 kmh 29.91 in1012.9 mb - 0.00 in0.0 mm 0.00 in0.0 mm
03:50 PM 79.7°F26.5°C 73.8°F23.2°C 82% 3.1 mph SW5.0 kmh SW 5.2 mph8.4 kmh 29.91 in1012.9 mb - 0.00 in0.0 mm 0.00 in0.0 mm
04:00 PM 81.2°F27.3°C 73.7°F23.2°C 78% 3.2 mph SSE5.1 kmh SSE 9.1 mph14.6 kmh 29.91 in1012.9 mb - 0.00 in0.0 mm 0.00 in0.0 mm
04:10 PM 80.8°F27.1°C 73.3°F22.9°C 78% 4.1 mph S6.6 kmh S 7.8 mph12.6 kmh 29.91 in1012.9 mb - 0.00 in0.0 mm 0.00 in0.0 mm
04:20 PM 80.3°F26.8°C 73.6°F23.1°C 80% 2.9 mph S4.7 kmh S 3.9 mph6.3 kmh 29.91 in1012.9 mb - 0.00 in0.0 mm 0.00 in0.0 mm
04:30 PM 79.8°F26.6°C 73.5°F23.1°C 81% 2.3 mph S3.7 kmh S 2.6 mph4.2 kmh 29.91 in1012.9 mb - 0.00 in0.0 mm 0.00 in0.0 mm
04:40 PM 79.8°F26.6°C 73.4°F23.0°C 81% 4.0 mph S6.4 kmh S 6.5 mph10.5 kmh 29.91 in1012.9 mb - 0.00 in0.0 mm 0.00 in0.0 mm
04:50 PM 79.8°F26.6°C 73.5°F23.1°C 81% 1.9 mph SE3.1 kmh SE 3.9 mph6.3 kmh 29.90 in1012.5 mb - 0.00 in0.0 mm 0.00 in0.0 mm
05:00 PM 80.4°F26.9°C 73.7°F23.2°C 80% 3.4 mph S5.5 kmh S 3.9 mph6.3 kmh 29.90 in1012.5 mb - 0.00 in0.0 mm 0.00 in0.0 mm
05:10 PM 80.6°F27.0°C 73.5°F23.1°C 79% 3.6 mph S5.8 kmh S 5.2 mph8.4 kmh 29.89 in1012.2 mb - 0.00 in0.0 mm 0.00 in0.0 mm
05:20 PM 79.8°F26.6°C 73.4°F23.0°C 81% 3.2 mph WSW5.1 kmh WSW 3.9 mph6.3 kmh 29.89 in1012.2 mb - 0.00 in0.0 mm 0.00 in0.0 mm
05:30 PM 79.2°F26.2°C 73.6°F23.1°C 83% 2.7 mph SSE4.3 kmh SSE 6.5 mph10.5 kmh 29.88 in1011.9 mb - 0.00 in0.0 mm 0.00 in0.0 mm
05:40 PM 79.0°F26.1°C 73.7°F23.2°C 84% 3.0 mph SSE4.8 kmh SSE 5.2 mph8.4 kmh 29.88 in1011.9 mb - 0.00 in0.0 mm 0.00 in0.0 mm
05:50 PM 78.9°F26.1°C 73.7°F23.2°C 84% 2.5 mph S4.0 kmh S 2.6 mph4.2 kmh 29.87 in1011.5 mb - 0.00 in0.0 mm 0.00 in0.0 mm
06:00 PM 78.6°F25.9°C 73.4°F23.0°C 84% 4.5 mph SSE7.2 kmh SSE 7.8 mph12.6 kmh 29.87 in1011.5 mb - 0.00 in0.0 mm 0.00 in0.0 mm
06:10 PM 78.0°F25.6°C 72.8°F22.7°C 84% 2.7 mph SW4.3 kmh SW 5.2 mph8.4 kmh 29.87 in1011.5 mb - 0.00 in0.0 mm 0.00 in0.0 mm
06:20 PM 77.6°F25.3°C 73.4°F23.0°C 87% 1.0 mph SE1.6 kmh SE 2.6 mph4.2 kmh 29.86 in1011.2 mb - 0.00 in0.0 mm 0.00 in0.0 mm
06:30 PM 77.8°F25.4°C 72.9°F22.7°C 85% 2.6 mph SE4.2 kmh SE 3.9 mph6.3 kmh 29.87 in1011.5 mb - 0.00 in0.0 mm 0.00 in0.0 mm
06:40 PM 77.5°F25.3°C 72.6°F22.6°C 85% 2.7 mph SE4.3 kmh SE 5.2 mph8.4 kmh 29.87 in1011.5 mb - 0.00 in0.0 mm 0.00 in0.0 mm
06:50 PM 76.9°F24.9°C 72.4°F22.4°C 86% 3.6 mph SSE5.8 kmh SSE 5.2 mph8.4 kmh 29.86 in1011.2 mb - 0.00 in0.0 mm 0.00 in0.0 mm
07:00 PM 76.3°F24.6°C 71.8°F22.1°C 86% 2.3 mph WSW3.7 kmh WSW 3.9 mph6.3 kmh 29.87 in1011.5 mb - 0.00 in0.0 mm 0.00 in0.0 mm
07:10 PM 76.0°F24.4°C 71.5°F21.9°C 86% 3.3 mph S5.3 kmh S 10.4 mph16.7 kmh 29.87 in1011.5 mb - 0.00 in0.0 mm 0.00 in0.0 mm
07:20 PM 76.0°F24.4°C 71.9°F22.2°C 87% 2.5 mph SSW4.0 kmh SSW 3.9 mph6.3 kmh 29.87 in1011.5 mb - 0.00 in0.0 mm 0.00 in0.0 mm
07:30 PM 75.7°F24.3°C 71.5°F21.9°C 87% 2.7 mph ESE4.3 kmh ESE 10.4 mph16.7 kmh 29.88 in1011.9 mb - 0.00 in0.0 mm 0.00 in0.0 mm
07:40 PM 75.2°F24.0°C 71.4°F21.9°C 88% 2.3 mph S3.7 kmh S 2.6 mph4.2 kmh 29.88 in1011.9 mb - 0.00 in0.0 mm 0.00 in0.0 mm
07:50 PM 75.0°F23.9°C 71.6°F22.0°C 89% 3.1 mph SSE5.0 kmh SSE 5.2 mph8.4 kmh 29.88 in1011.9 mb - 0.00 in0.0 mm 0.00 in0.0 mm
08:00 PM 74.8°F23.8°C 71.3°F21.8°C 89% 4.9 mph ESE7.9 kmh ESE 5.2 mph8.4 kmh 29.88 in1011.9 mb - 0.00 in0.0 mm 0.00 in0.0 mm
08:10 PM 74.6°F23.7°C 71.2°F21.8°C 89% 3.2 mph SSE5.1 kmh SSE 5.2 mph8.4 kmh 29.88 in1011.9 mb - 0.00 in0.0 mm 0.00 in0.0 mm
08:20 PM 74.3°F23.5°C 71.2°F21.8°C 90% 2.2 mph S3.5 kmh S 2.6 mph4.2 kmh 29.88 in1011.9 mb - 0.00 in0.0 mm 0.00 in0.0 mm
08:30 PM 73.9°F23.3°C 71.1°F21.7°C 91% 3.8 mph SE6.1 kmh SE 2.6 mph4.2 kmh 29.88 in1011.9 mb - 0.00 in0.0 mm 0.00 in0.0 mm
08:40 PM 73.7°F23.2°C 70.9°F21.6°C 91% 3.3 mph W5.3 kmh W 5.2 mph8.4 kmh 29.88 in1011.9 mb - 0.00 in0.0 mm 0.00 in0.0 mm
08:50 PM 73.6°F23.1°C 70.8°F21.6°C 91% 3.0 mph S4.8 kmh S 6.5 mph10.5 kmh 29.88 in1011.9 mb - 0.00 in0.0 mm 0.00 in0.0 mm
09:00 PM 73.3°F22.9°C 70.9°F21.6°C 92% 0.8 mph SW1.3 kmh SW 2.6 mph4.2 kmh 29.89 in1012.2 mb - 0.00 in0.0 mm 0.00 in0.0 mm
09:10 PM 73.1°F22.8°C 70.7°F21.5°C 92% 3.4 mph S5.5 kmh S 3.9 mph6.3 kmh 29.89 in1012.2 mb - 0.00 in0.0 mm 0.00 in0.0 mm
09:20 PM 72.9°F22.7°C 70.7°F21.5°C 93% 3.2 mph SSW5.1 kmh SSW 7.8 mph12.6 kmh 29.89 in1012.2 mb - 0.00 in0.0 mm 0.00 in0.0 mm
09:30 PM 72.7°F22.6°C 70.6°F21.4°C 93% 2.6 mph SE4.2 kmh SE 2.6 mph4.2 kmh 29.89 in1012.2 mb - 0.00 in0.0 mm 0.00 in0.0 mm
09:40 PM 72.3°F22.4°C 70.2°F21.2°C 93% 1.8 mph NE2.9 kmh NE 5.2 mph8.4 kmh 29.89 in1012.2 mb - 0.00 in0.0 mm 0.00 in0.0 mm
09:50 PM 72.0°F22.2°C 70.2°F21.2°C 94% 2.6 mph SSE4.2 kmh SSE 5.2 mph8.4 kmh 29.89 in1012.2 mb - 0.00 in0.0 mm 0.00 in0.0 mm
10:00 PM 71.9°F22.2°C 70.0°F21.1°C 94% 1.1 mph S1.8 kmh S 5.2 mph8.4 kmh 29.88 in1011.9 mb - 0.00 in0.0 mm 0.00 in0.0 mm
10:10 PM 71.7°F22.1°C 70.2°F21.2°C 95% 1.1 mph SE1.8 kmh SE 5.2 mph8.4 kmh 29.88 in1011.9 mb - 0.00 in0.0 mm 0.00 in0.0 mm
10:20 PM 71.5°F21.9°C 70.0°F21.1°C 95% 3.1 mph S5.0 kmh S 6.5 mph10.5 kmh 29.88 in1011.9 mb - 0.00 in0.0 mm 0.00 in0.0 mm
10:30 PM 71.4°F21.9°C 69.9°F21.1°C 95% 1.2 mph S1.9 kmh S 3.9 mph6.3 kmh 29.88 in1011.9 mb - 0.00 in0.0 mm 0.00 in0.0 mm
10:40 PM 71.3°F21.8°C 69.8°F21.0°C 95% 2.6 mph SSE4.2 kmh SSE 3.9 mph6.3 kmh 29.88 in1011.9 mb - 0.00 in0.0 mm 0.00 in0.0 mm
10:50 PM 71.2°F21.8°C 70.0°F21.1°C 96% 2.6 mph S4.2 kmh S 2.6 mph4.2 kmh 29.88 in1011.9 mb - 0.00 in0.0 mm 0.00 in0.0 mm
11:00 PM 71.2°F21.8°C 70.0°F21.1°C 96% 3.6 mph SSE5.8 kmh SSE 7.8 mph12.6 kmh 29.87 in1011.5 mb - 0.00 in0.0 mm 0.00 in0.0 mm
11:10 PM 71.2°F21.8°C 70.3°F21.3°C 97% 2.3 mph S3.7 kmh S 5.2 mph8.4 kmh 29.87 in1011.5 mb - 0.00 in0.0 mm 0.00 in0.0 mm
11:20 PM 71.4°F21.9°C 70.5°F21.4°C 97% 2.3 mph SE3.7 kmh SE 2.6 mph4.2 kmh 29.88 in1011.9 mb - 0.00 in0.0 mm 0.00 in0.0 mm
11:30 PM 71.6°F22.0°C 70.7°F21.5°C 97% 2.8 mph S4.5 kmh S 3.9 mph6.3 kmh 29.88 in1011.9 mb - 0.00 in0.0 mm 0.00 in0.0 mm
11:40 PM 71.7°F22.1°C 70.8°F21.6°C 97% 2.2 mph SW3.5 kmh SW 2.6 mph4.2 kmh 29.88 in1011.9 mb - 0.00 in0.0 mm 0.00 in0.0 mm
11:50 PM 71.8°F22.1°C 70.9°F21.6°C 97% 2.9 mph SSE4.7 kmh SSE 6.5 mph10.5 kmh 29.89 in1012.2 mb - 0.00 in0.0 mm 0.00 in0.0 mm